createdAt,value
2022-11-29T00:00:57.187Z,14.23
2022-11-29T00:03:24.889Z,10.80
2022-11-29T00:05:52.466Z,12.98
2022-11-29T00:08:21.597Z,13.20
2022-11-29T00:10:49.177Z,19.27
2022-11-29T00:13:17.851Z,10.35
2022-11-29T00:15:45.488Z,11.75
2022-11-29T00:18:13.102Z,10.18
2022-11-29T00:20:40.603Z,11.48
2022-11-29T00:23:08.092Z,10.48
2022-11-29T00:25:38.409Z,11.90
2022-11-29T00:28:05.964Z,11.35
2022-11-29T00:30:33.531Z,14.82
2022-11-29T00:33:01.201Z,12.85
2022-11-29T00:35:28.724Z,14.57
2022-11-29T00:37:56.301Z,11.23
2022-11-29T00:40:23.905Z,9.70
2022-11-29T00:42:52.991Z,17.70
2022-11-29T00:45:20.500Z,14.68
2022-11-29T00:47:48.114Z,10.88
2022-11-29T00:50:15.503Z,11.48
2022-11-29T00:52:43.002Z,11.30
2022-11-29T00:55:10.664Z,12.25
2022-11-29T00:57:38.297Z,12.30
2022-11-29T01:00:09.316Z,16.10
2022-11-29T01:02:36.867Z,12.02
2022-11-29T01:05:04.874Z,13.95
2022-11-29T01:07:32.560Z,13.73
2022-11-29T01:10:00.150Z,10.48
2022-11-29T01:12:27.607Z,12.77
2022-11-29T01:14:55.188Z,12.15
2022-11-29T01:17:24.215Z,11.05
2022-11-29T01:19:51.857Z,8.13
2022-11-29T01:22:19.401Z,10.65
2022-11-29T01:24:47.093Z,11.20
2022-11-29T01:27:14.673Z,7.78
2022-11-29T01:29:42.335Z,11.32
2022-11-29T01:32:09.865Z,13.00
2022-11-29T01:34:40.080Z,11.95
2022-11-29T01:37:07.621Z,13.00
2022-11-29T01:39:35.221Z,11.48
2022-11-29T01:42:02.806Z,11.02
2022-11-29T01:45:02.190Z,7.50
2022-11-29T01:47:29.611Z,11.55
2022-11-29T01:49:58.586Z,11.18
2022-11-29T01:52:28.222Z,9.10
2022-11-29T01:54:57.009Z,8.13
2022-11-29T01:57:24.518Z,7.38
2022-11-29T01:59:54.857Z,11.48
2022-11-29T02:02:25.255Z,9.23
2022-11-29T02:04:52.809Z,10.38
2022-11-29T02:07:21.850Z,7.95
2022-11-29T02:09:49.478Z,9.68
2022-11-29T02:12:22.318Z,7.65
2022-11-29T02:14:59.090Z,8.90
2022-11-29T02:17:30.797Z,9.50
2022-11-29T02:20:40.112Z,9.75
2022-11-29T02:23:18.175Z,7.32
2022-11-29T02:25:55.566Z,10.02
2022-11-29T02:28:58.212Z,4.63
2022-11-29T02:32:04.706Z,9.40
2022-11-29T02:34:39.792Z,8.23
2022-11-29T02:37:21.969Z,9.02
2022-11-29T02:39:57.667Z,7.93
2022-11-29T02:42:56.008Z,6.40
2022-11-29T02:45:37.937Z,7.07
2022-11-29T02:48:14.403Z,8.40
2022-11-29T02:50:44.548Z,7.45
2022-11-29T02:53:15.834Z,7.15
2022-11-29T02:55:47.154Z,8.07
2022-11-29T02:58:19.929Z,5.97
2022-11-29T03:00:52.101Z,7.63
2022-11-29T03:03:22.299Z,6.47
2022-11-29T03:05:54.206Z,8.65
2022-11-29T03:08:26.083Z,7.32
2022-11-29T03:10:59.742Z,9.98
2022-11-29T03:13:36.593Z,5.50
2022-11-29T03:16:06.889Z,6.63
2022-11-29T03:18:39.564Z,7.40
2022-11-29T03:21:13.484Z,8.95
2022-11-29T03:23:45.581Z,7.07
2022-11-29T03:26:15.723Z,6.80
2022-11-29T03:28:46.468Z,9.68
2022-11-29T03:31:16.400Z,8.18
2022-11-29T03:33:48.937Z,8.40
2022-11-29T03:36:23.828Z,7.30
2022-11-29T03:38:51.437Z,4.45
2022-11-29T03:41:23.561Z,6.70
2022-11-29T03:43:53.775Z,6.68
2022-11-29T03:46:28.035Z,6.75
2022-11-29T03:48:57.839Z,6.20
2022-11-29T03:51:33.290Z,8.23
2022-11-29T03:54:02.463Z,5.35
2022-11-29T03:56:32.062Z,3.55
2022-11-29T03:59:09.126Z,6.20
2022-11-29T04:02:18.883Z,5.55
2022-11-29T04:05:19.554Z,5.85
2022-11-29T04:08:09.666Z,10.68
2022-11-29T04:10:58.083Z,7.65
2022-11-29T04:14:07.060Z,4.13
2022-11-29T04:17:22.901Z,8.57
2022-11-29T04:20:42.040Z,6.22
2022-11-29T04:23:45.429Z,5.10
2022-11-29T04:26:34.635Z,8.23
2022-11-29T04:29:38.085Z,7.88
2022-11-29T04:32:29.315Z,7.18
2022-11-29T04:35:09.534Z,5.40
2022-11-29T04:38:07.697Z,4.13
2022-11-29T04:40:52.210Z,6.60
2022-11-29T04:43:33.834Z,4.95
2022-11-29T04:46:14.663Z,4.10
2022-11-29T04:48:51.476Z,7.35
2022-11-29T04:51:26.335Z,6.95
2022-11-29T04:53:55.572Z,6.53
2022-11-29T04:56:29.964Z,4.25
2022-11-29T04:59:01.707Z,7.88
2022-11-29T05:01:35.973Z,6.18
2022-11-29T05:04:07.679Z,4.55
2022-11-29T05:06:38.507Z,7.03
2022-11-29T05:09:11.658Z,6.88
2022-11-29T05:11:48.272Z,5.00
2022-11-29T05:14:23.591Z,6.78
2022-11-29T05:16:54.689Z,4.40
2022-11-29T05:19:36.504Z,4.63
2022-11-29T05:22:14.499Z,4.63
2022-11-29T05:24:50.613Z,3.03
2022-11-29T05:27:24.791Z,5.25
2022-11-29T05:29:58.523Z,5.93
2022-11-29T05:32:31.201Z,7.22
2022-11-29T05:35:31.019Z,4.78
2022-11-29T05:38:02.049Z,5.60
2022-11-29T05:40:41.554Z,4.18
2022-11-29T05:43:53.735Z,3.90
2022-11-29T05:46:26.747Z,8.55
2022-11-29T05:48:59.584Z,6.28
2022-11-29T05:51:33.200Z,6.20
2022-11-29T05:54:04.691Z,4.90
2022-11-29T05:56:40.092Z,4.70
2022-11-29T05:59:09.362Z,3.90
2022-11-29T06:01:42.323Z,4.65
2022-11-29T06:04:14.987Z,4.00
2022-11-29T06:06:44.973Z,3.37
2022-11-29T06:09:16.115Z,5.25
2022-11-29T06:11:45.781Z,5.28
2022-11-29T06:14:20.700Z,4.60
2022-11-29T06:17:01.833Z,9.35
2022-11-29T06:19:57.790Z,3.95
2022-11-29T06:22:54.128Z,4.63
2022-11-29T06:25:30.673Z,5.15
2022-11-29T06:28:12.883Z,4.10
2022-11-29T06:30:47.856Z,4.57
2022-11-29T06:33:19.532Z,5.22
2022-11-29T06:35:48.817Z,4.30
2022-11-29T06:38:18.195Z,4.45
2022-11-29T06:40:46.136Z,3.35
2022-11-29T06:43:14.367Z,2.83
2022-11-29T06:45:43.996Z,2.22
2022-11-29T06:48:11.453Z,4.22
2022-11-29T06:50:44.200Z,4.97
2022-11-29T06:53:15.438Z,6.72
2022-11-29T06:55:47.188Z,4.28
2022-11-29T06:58:22.918Z,3.90
2022-11-29T07:00:52.632Z,3.88
2022-11-29T07:03:29.970Z,3.42
2022-11-29T07:05:59.299Z,4.22
2022-11-29T07:08:27.375Z,3.03
2022-11-29T07:10:55.789Z,5.20
2022-11-29T07:13:24.034Z,3.83
2022-11-29T07:15:56.934Z,7.50
2022-11-29T07:18:28.204Z,6.13
2022-11-29T07:21:03.855Z,4.93
2022-11-29T07:23:35.734Z,4.80
2022-11-29T07:26:14.089Z,4.15
2022-11-29T07:28:48.363Z,3.78
2022-11-29T07:31:19.599Z,7.03
2022-11-29T07:33:52.880Z,5.95
2022-11-29T07:36:26.592Z,5.73
2022-11-29T07:38:59.986Z,5.30
2022-11-29T07:41:30.435Z,3.63
2022-11-29T07:44:02.049Z,4.45
2022-11-29T07:46:29.663Z,3.20
2022-11-29T07:48:57.291Z,4.25
2022-11-29T07:51:26.362Z,2.70
2022-11-29T07:53:53.983Z,3.35
2022-11-29T07:56:21.606Z,4.57
2022-11-29T07:58:49.405Z,3.53
2022-11-29T08:01:17.086Z,5.55
2022-11-29T08:03:44.700Z,4.47
2022-11-29T08:06:12.229Z,4.68
2022-11-29T08:08:44.241Z,3.03
2022-11-29T08:11:12.392Z,3.95
2022-11-29T08:13:39.976Z,4.30
2022-11-29T08:16:08.246Z,5.88
2022-11-29T08:18:37.038Z,3.42
2022-11-29T08:21:06.393Z,5.32
2022-11-29T08:23:33.932Z,4.88
2022-11-29T08:26:03.159Z,3.20
2022-11-29T08:28:30.692Z,3.83
2022-11-29T08:31:02.217Z,3.25
2022-11-29T08:33:29.930Z,5.38
2022-11-29T08:35:57.543Z,4.15
2022-11-29T08:38:25.214Z,4.32
2022-11-29T08:40:52.973Z,3.38
2022-11-29T08:43:22.103Z,4.10
2022-11-29T08:45:52.340Z,3.50
2022-11-29T08:48:20.213Z,6.15
2022-11-29T08:50:49.673Z,6.18
2022-11-29T08:53:17.250Z,4.20
2022-11-29T08:55:44.812Z,6.13
2022-11-29T08:58:13.575Z,5.13
2022-11-29T09:00:43.513Z,4.10
2022-11-29T09:03:11.344Z,6.28
2022-11-29T09:05:38.879Z,4.25
2022-11-29T09:08:06.370Z,6.38
2022-11-29T09:10:34.176Z,5.38
2022-11-29T09:13:01.737Z,4.32
2022-11-29T09:15:29.279Z,6.15
2022-11-29T09:17:58.561Z,2.97
2022-11-29T09:20:26.107Z,4.18
2022-11-29T09:22:53.926Z,7.35
2022-11-29T09:25:21.440Z,5.25
2022-11-29T09:27:48.946Z,5.63
2022-11-29T09:30:22.120Z,6.47
2022-11-29T09:32:51.525Z,4.13
2022-11-29T09:35:20.600Z,5.53
2022-11-29T09:37:48.238Z,7.38
2022-11-29T09:40:17.241Z,5.53
2022-11-29T09:42:50.853Z,5.18
2022-11-29T09:45:19.752Z,4.07
2022-11-29T09:48:21.847Z,4.93
2022-11-29T09:50:52.720Z,3.28
2022-11-29T09:53:27.906Z,4.25
2022-11-29T09:56:05.242Z,2.45
2022-11-29T09:58:34.731Z,4.82
2022-11-29T10:01:04.677Z,3.67
2022-11-29T10:03:33.694Z,5.15
2022-11-29T10:06:04.515Z,4.03
2022-11-29T10:08:33.385Z,3.90
2022-11-29T10:11:11.567Z,7.40
2022-11-29T10:13:39.127Z,2.97
2022-11-29T10:16:16.172Z,5.90
2022-11-29T10:18:46.630Z,6.55
2022-11-29T10:21:19.805Z,4.28
2022-11-29T10:23:49.209Z,3.37
2022-11-29T10:26:16.863Z,4.43
2022-11-29T10:28:45.219Z,4.43
2022-11-29T10:31:18.226Z,5.22
2022-11-29T10:33:45.964Z,5.77
2022-11-29T10:36:19.805Z,3.95
2022-11-29T10:38:47.474Z,3.47
2022-11-29T10:41:17.773Z,6.88
2022-11-29T10:43:45.401Z,3.90
2022-11-29T10:46:15.799Z,4.45
2022-11-29T10:48:43.893Z,4.97
2022-11-29T10:51:16.423Z,4.72
2022-11-29T10:53:44.145Z,3.88
2022-11-29T10:56:16.943Z,3.72
2022-11-29T10:58:54.994Z,5.53
2022-11-29T11:01:22.623Z,4.35
2022-11-29T11:03:53.173Z,4.43
2022-11-29T11:06:23.100Z,3.10
2022-11-29T11:08:52.051Z,4.32
2022-11-29T11:11:25.327Z,3.58
2022-11-29T11:13:58.863Z,4.97
2022-11-29T11:16:26.545Z,5.05
2022-11-29T11:18:54.270Z,4.75
2022-11-29T11:21:24.475Z,3.20
2022-11-29T11:23:54.474Z,4.82
2022-11-29T11:26:22.156Z,6.95
2022-11-29T11:28:52.572Z,4.63
2022-11-29T11:31:28.290Z,4.55
2022-11-29T11:33:55.874Z,3.83
2022-11-29T11:36:26.093Z,3.55
2022-11-29T11:38:54.553Z,5.57
2022-11-29T11:41:24.127Z,4.13
2022-11-29T11:43:53.914Z,5.78
2022-11-29T11:46:21.501Z,3.60
2022-11-29T11:48:49.093Z,2.80
2022-11-29T11:51:22.181Z,4.03
2022-11-29T11:53:52.789Z,3.57
2022-11-29T11:56:20.363Z,5.00
2022-11-29T11:58:49.950Z,3.55
2022-11-29T12:01:23.703Z,4.50
2022-11-29T12:03:53.318Z,6.05
2022-11-29T12:06:42.416Z,2.88
2022-11-29T12:09:18.661Z,3.58
2022-11-29T12:11:51.259Z,4.63
2022-11-29T12:14:28.259Z,3.55
2022-11-29T12:17:02.509Z,4.18
2022-11-29T12:19:32.574Z,2.47
2022-11-29T12:22:00.906Z,5.20
2022-11-29T12:24:33.423Z,4.60
2022-11-29T12:27:03.445Z,3.10
2022-11-29T12:29:34.275Z,2.97
2022-11-29T12:32:10.787Z,2.78
2022-11-29T12:34:47.195Z,4.55
2022-11-29T12:37:17.958Z,3.72
2022-11-29T12:39:53.885Z,4.50
2022-11-29T12:42:32.050Z,3.70
2022-11-29T12:45:03.858Z,3.08
2022-11-29T12:47:39.497Z,5.32
2022-11-29T12:50:14.795Z,4.60
2022-11-29T12:52:45.202Z,3.70
2022-11-29T12:55:20.360Z,4.05
2022-11-29T12:57:50.761Z,4.43
2022-11-29T13:00:18.791Z,3.53
2022-11-29T13:02:56.532Z,3.33
2022-11-29T13:05:33.293Z,4.68
2022-11-29T13:08:09.363Z,4.03
2022-11-29T13:10:46.698Z,3.40
2022-11-29T13:13:18.898Z,3.17
2022-11-29T13:15:50.119Z,3.45
2022-11-29T13:18:21.245Z,3.25
2022-11-29T13:20:52.340Z,3.50
2022-11-29T13:23:39.060Z,3.55
2022-11-29T13:26:12.478Z,3.20
2022-11-29T13:28:41.673Z,4.45
2022-11-29T13:31:12.641Z,5.78
2022-11-29T13:33:44.436Z,4.15
2022-11-29T13:36:13.564Z,2.47
2022-11-29T13:38:42.855Z,3.28
2022-11-29T13:41:16.357Z,4.75
2022-11-29T13:43:45.766Z,3.05
2022-11-29T13:46:19.989Z,2.85
2022-11-29T13:48:48.567Z,3.47
2022-11-29T13:51:24.907Z,2.88
2022-11-29T13:53:52.481Z,4.72
2022-11-29T13:56:30.067Z,5.18
2022-11-29T13:58:57.751Z,2.72
2022-11-29T14:01:25.395Z,3.17
2022-11-29T14:04:03.153Z,5.93
2022-11-29T14:06:34.112Z,5.22
2022-11-29T14:09:24.876Z,4.90
2022-11-29T14:11:58.804Z,2.20
2022-11-29T14:14:28.446Z,3.40
2022-11-29T14:16:58.726Z,3.92
2022-11-29T14:19:32.799Z,3.28
2022-11-29T14:22:27.998Z,2.88
2022-11-29T14:25:16.309Z,4.68
2022-11-29T14:27:59.297Z,7.40
2022-11-29T14:30:50.376Z,6.15
2022-11-29T14:33:44.814Z,3.17
2022-11-29T14:36:26.704Z,5.40
2022-11-29T14:39:03.561Z,2.27
2022-11-29T14:41:49.270Z,3.45
2022-11-29T14:44:20.985Z,3.13
2022-11-29T14:46:48.626Z,4.70
2022-11-29T14:49:22.368Z,4.63
2022-11-29T14:52:25.600Z,2.17
2022-11-29T14:54:59.071Z,3.83
2022-11-29T15:00:14.718Z,5.25
2022-11-29T15:02:44.458Z,5.32
2022-11-29T15:05:17.694Z,2.58
2022-11-29T15:07:50.291Z,7.93
2022-11-29T15:10:20.374Z,5.15
2022-11-29T15:12:47.905Z,8.32
2022-11-29T15:15:33.178Z,5.68
2022-11-29T15:18:03.367Z,4.50
2022-11-29T15:20:46.370Z,4.90
2022-11-29T15:23:15.025Z,4.38
2022-11-29T15:25:46.861Z,5.28
2022-11-29T15:28:20.869Z,2.13
2022-11-29T15:33:20.369Z,4.95
2022-11-29T15:35:49.020Z,2.58
2022-11-29T15:38:18.208Z,4.32
2022-11-29T15:40:48.606Z,6.35
2022-11-29T15:43:16.981Z,6.47
2022-11-29T15:45:47.443Z,6.75
2022-11-29T15:48:21.110Z,7.07
2022-11-29T15:50:55.702Z,6.53
2022-11-29T15:53:26.274Z,7.60
2022-11-29T15:55:55.543Z,5.32
2022-11-29T15:58:22.988Z,5.68
2022-11-29T16:00:57.687Z,7.88
2022-11-29T16:03:27.397Z,6.22
2022-11-29T16:06:01.050Z,8.98
2022-11-29T16:08:30.316Z,6.95
2022-11-29T16:10:57.650Z,4.95
2022-11-29T16:13:31.891Z,6.38
2022-11-29T16:16:12.339Z,8.10
2022-11-29T16:18:43.456Z,6.95
2022-11-29T16:21:23.511Z,6.78
2022-11-29T16:23:51.008Z,4.88
2022-11-29T16:26:19.822Z,5.13
2022-11-29T16:28:48.130Z,10.65
2022-11-29T16:31:18.084Z,6.32
2022-11-29T16:33:47.149Z,4.80
2022-11-29T16:36:15.892Z,3.38
2022-11-29T16:38:48.806Z,5.53
2022-11-29T16:41:24.751Z,3.93
2022-11-29T16:43:53.397Z,7.72
2022-11-29T16:46:31.318Z,5.72
2022-11-29T16:49:01.452Z,4.30
2022-11-29T16:51:34.028Z,4.97
2022-11-29T16:54:19.884Z,6.88
2022-11-29T16:56:47.263Z,8.32
2022-11-29T16:59:20.807Z,3.80
2022-11-29T17:01:55.251Z,11.13
2022-11-29T17:04:24.830Z,9.05
2022-11-29T17:06:53.162Z,8.20
2022-11-29T17:09:23.686Z,7.82
2022-11-29T17:11:50.930Z,7.03
2022-11-29T17:14:18.330Z,12.45
2022-11-29T17:16:45.773Z,12.43
2022-11-29T17:19:13.203Z,10.48
2022-11-29T17:21:41.964Z,15.07
2022-11-29T17:24:11.472Z,10.45
2022-11-29T17:26:38.735Z,9.65
2022-11-29T17:29:05.954Z,15.38
2022-11-29T17:31:33.453Z,11.60
2022-11-29T17:34:00.916Z,12.50
2022-11-29T17:36:28.387Z,12.25
2022-11-29T17:38:58.831Z,15.02
2022-11-29T17:41:26.526Z,9.63
2022-11-29T17:43:54.900Z,13.40
2022-11-29T17:46:23.279Z,10.82
2022-11-29T17:48:51.224Z,12.27
2022-11-29T17:51:49.899Z,14.77
2022-11-29T17:54:09.771Z,14.65
2022-11-29T17:56:37.101Z,15.05
2022-11-29T17:59:04.754Z,19.02
2022-11-29T18:01:33.539Z,15.40
2022-11-29T18:04:01.904Z,16.27
2022-11-29T18:06:30.714Z,17.45
2022-11-29T18:08:59.201Z,14.73
2022-11-29T18:11:29.971Z,15.95
2022-11-29T18:13:58.500Z,21.40
2022-11-29T18:16:26.710Z,18.02
2022-11-29T18:18:55.382Z,15.77
2022-11-29T18:21:22.924Z,15.65
2022-11-29T18:23:50.319Z,18.67
2022-11-29T18:26:19.146Z,24.55
2022-11-29T18:28:47.932Z,30.08
2022-11-29T18:31:16.442Z,27.83
2022-11-29T18:33:45.773Z,29.65
2022-11-29T18:36:13.825Z,199.77
2022-11-29T18:38:42.694Z,188.43
2022-11-29T18:41:11.384Z,264.38
2022-11-29T18:43:40.236Z,163.77
2022-11-29T18:46:11.359Z,134.23
2022-11-29T18:48:38.992Z,121.05
2022-11-29T18:51:07.570Z,73.20
2022-11-29T18:53:35.149Z,67.13
2022-11-29T18:56:03.454Z,57.10
2022-11-29T18:58:30.773Z,59.92
2022-11-29T19:01:05.812Z,55.63
2022-11-29T19:03:36.658Z,46.38
2022-11-29T19:06:05.439Z,50.05
2022-11-29T19:08:32.866Z,52.10
2022-11-29T19:11:03.846Z,46.78
2022-11-29T19:13:31.408Z,46.22
2022-11-29T19:15:59.034Z,49.10
2022-11-29T19:18:26.635Z,54.75
2022-11-29T19:21:04.189Z,52.25
2022-11-29T19:23:31.735Z,52.38
2022-11-29T19:26:03.360Z,50.90
2022-11-29T19:28:31.137Z,48.60
2022-11-29T19:30:58.906Z,49.88
2022-11-29T19:33:26.572Z,43.35
2022-11-29T19:35:55.683Z,40.95
2022-11-29T19:38:23.209Z,51.15
2022-11-29T19:40:50.651Z,48.20
2022-11-29T19:43:18.007Z,48.38
2022-11-29T19:45:45.979Z,45.25
2022-11-29T19:48:13.370Z,48.42
2022-11-29T19:50:41.098Z,46.20
2022-11-29T19:53:10.204Z,48.30
2022-11-29T19:55:43.668Z,48.83
2022-11-29T20:00:39.018Z,47.58
2022-11-29T20:03:06.586Z,47.65
2022-11-29T20:05:34.116Z,48.83
2022-11-29T20:08:01.708Z,58.58
2022-11-29T20:10:30.765Z,47.95
2022-11-29T20:12:58.336Z,45.70
2022-11-29T20:15:25.861Z,49.47
2022-11-29T20:17:53.333Z,52.33
2022-11-29T20:20:20.991Z,48.80
2022-11-29T20:22:48.562Z,51.88
2022-11-29T20:25:16.279Z,48.40
2022-11-29T20:27:45.347Z,45.00
2022-11-29T20:30:14.415Z,52.80
2022-11-29T20:32:42.168Z,47.47
2022-11-29T20:35:10.898Z,40.60
2022-11-29T20:37:51.719Z,45.08
2022-11-29T20:40:20.347Z,46.63
2022-11-29T20:42:57.423Z,49.78
2022-11-29T20:45:25.670Z,48.08
2022-11-29T20:47:56.140Z,46.50
2022-11-29T20:50:25.579Z,54.80
2022-11-29T20:53:10.353Z,53.70
2022-11-29T20:55:37.879Z,47.80
2022-11-29T20:58:06.966Z,46.20
2022-11-29T21:00:34.861Z,47.20
2022-11-29T21:03:02.416Z,48.95
2022-11-29T21:05:30.053Z,48.90
2022-11-29T21:07:57.714Z,50.13
2022-11-29T21:10:25.226Z,49.78
2022-11-29T21:12:53.282Z,50.03
2022-11-29T21:15:23.390Z,49.15
2022-11-29T21:17:51.385Z,56.63
2022-11-29T21:20:21.087Z,50.90
2022-11-29T21:22:53.266Z,53.03
2022-11-29T21:25:23.930Z,56.10
2022-11-29T21:27:51.498Z,48.60
2022-11-29T21:30:22.114Z,49.40
2022-11-29T21:32:50.307Z,52.05
2022-11-29T21:35:17.994Z,52.63
2022-11-29T21:37:45.624Z,53.10
2022-11-29T21:40:13.839Z,59.33
2022-11-29T21:42:41.420Z,54.10
2022-11-29T21:45:15.247Z,50.22
2022-11-29T21:47:44.899Z,54.63
2022-11-29T21:50:12.786Z,55.97
2022-11-29T21:52:40.391Z,56.45
2022-11-29T21:55:08.657Z,57.35
2022-11-29T21:57:36.335Z,54.83
2022-11-29T22:00:04.425Z,56.90
2022-11-29T22:02:32.146Z,52.10
2022-11-29T22:05:01.539Z,60.22
2022-11-29T22:07:29.101Z,56.50
2022-11-29T22:09:56.750Z,53.00
2022-11-29T22:12:34.097Z,50.63
2022-11-29T22:15:02.717Z,51.92
2022-11-29T22:17:30.166Z,48.70
2022-11-29T22:19:57.721Z,50.10
2022-11-29T22:22:28.280Z,57.92
2022-11-29T22:24:56.234Z,51.83
2022-11-29T22:27:23.938Z,54.30
2022-11-29T22:29:51.476Z,48.75
2022-11-29T22:32:19.082Z,48.65
2022-11-29T22:34:46.800Z,49.40
2022-11-29T22:37:14.634Z,51.60
2022-11-29T22:39:43.771Z,53.40
2022-11-29T22:42:11.324Z,52.25
2022-11-29T22:44:38.945Z,50.33
2022-11-29T22:47:06.511Z,49.58
2022-11-29T22:49:34.286Z,49.20
2022-11-29T22:52:01.865Z,48.08
2022-11-29T22:54:29.523Z,52.17
2022-11-29T22:56:58.609Z,46.25
2022-11-29T22:59:26.123Z,53.33
2022-11-29T23:01:53.742Z,47.45
2022-11-29T23:04:21.219Z,47.92
2022-11-29T23:06:48.792Z,46.90
2022-11-29T23:09:17.182Z,49.50
2022-11-29T23:11:45.043Z,53.67
2022-11-29T23:14:14.095Z,48.22
2022-11-29T23:16:41.870Z,45.85
2022-11-29T23:19:09.575Z,46.58
2022-11-29T23:21:38.366Z,47.28
2022-11-29T23:24:06.322Z,51.25
2022-11-29T23:26:35.649Z,49.80
2022-11-29T23:29:03.313Z,45.75
2022-11-29T23:31:32.465Z,47.85
2022-11-29T23:34:00.091Z,44.22
2022-11-29T23:36:27.640Z,47.92
2022-11-29T23:38:55.240Z,48.38
2022-11-29T23:41:22.753Z,45.80
2022-11-29T23:43:50.317Z,47.38
2022-11-29T23:46:18.872Z,46.63
2022-11-29T23:48:48.047Z,44.83
2022-11-29T23:51:15.548Z,43.13
2022-11-29T23:53:43.229Z,47.22
2022-11-29T23:56:13.048Z,45.05
2022-11-29T23:58:40.751Z,46.22
